sensor_id;sensor_type;location;lat;lon;timestamp;pressure;altitude;pressure_sealevel;temperature;humidity
76726;BME280;65651;53.154;17.916;2023-01-20T00:02:00;100451.27;;;-0.96;82.96
76726;BME280;65651;53.154;17.916;2023-01-20T00:04:30;100457.50;;;-0.98;82.72
76726;BME280;65651;53.154;17.916;2023-01-20T00:06:57;100457.10;;;-0.97;82.82
76726;BME280;65651;53.154;17.916;2023-01-20T00:09:24;100460.95;;;-0.96;82.85
76726;BME280;65651;53.154;17.916;2023-01-20T00:11:52;100457.02;;;-0.95;82.70
76726;BME280;65651;53.154;17.916;2023-01-20T00:14:22;100454.18;;;-0.91;82.81
76726;BME280;65651;53.154;17.916;2023-01-20T00:16:51;100453.77;;;-0.90;82.86
76726;BME280;65651;53.154;17.916;2023-01-20T00:19:19;100459.48;;;-0.92;82.78
76726;BME280;65651;53.154;17.916;2023-01-20T00:21:46;100458.63;;;-0.93;82.76
76726;BME280;65651;53.154;17.916;2023-01-20T00:24:14;100455.23;;;-0.91;82.67
76726;BME280;65651;53.154;17.916;2023-01-20T00:26:44;100461.48;;;-0.90;82.81
76726;BME280;65651;53.154;17.916;2023-01-20T00:29:11;100459.73;;;-0.86;82.74
76726;BME280;65651;53.154;17.916;2023-01-20T00:31:39;100462.39;;;-0.83;82.65
76726;BME280;65651;53.154;17.916;2023-01-20T00:34:08;100466.16;;;-0.81;82.69
76726;BME280;65651;53.154;17.916;2023-01-20T00:36:35;100470.04;;;-0.77;82.92
76726;BME280;65651;53.154;17.916;2023-01-20T00:39:03;100465.80;;;-0.77;82.73
76726;BME280;65651;53.154;17.916;2023-01-20T00:41:31;100466.13;;;-0.77;82.74
76726;BME280;65651;53.154;17.916;2023-01-20T00:43:58;100474.46;;;-0.77;82.58
76726;BME280;65651;53.154;17.916;2023-01-20T00:46:26;100485.12;;;-0.79;82.71
76726;BME280;65651;53.154;17.916;2023-01-20T00:48:53;100487.18;;;-0.82;82.54
76726;BME280;65651;53.154;17.916;2023-01-20T00:51:21;100494.16;;;-0.84;82.52
76726;BME280;65651;53.154;17.916;2023-01-20T00:53:48;100492.00;;;-0.90;82.43
76726;BME280;65651;53.154;17.916;2023-01-20T00:56:18;100495.30;;;-0.96;82.33
76726;BME280;65651;53.154;17.916;2023-01-20T00:58:45;100498.04;;;-0.98;82.36
76726;BME280;65651;53.154;17.916;2023-01-20T01:01:13;100500.73;;;-0.96;82.59
76726;BME280;65651;53.154;17.916;2023-01-20T01:03:41;100501.86;;;-0.94;82.41
76726;BME280;65651;53.154;17.916;2023-01-20T01:06:14;100502.33;;;-0.93;82.47
76726;BME280;65651;53.154;17.916;2023-01-20T01:08:43;100502.81;;;-0.92;82.51
76726;BME280;65651;53.154;17.916;2023-01-20T01:11:11;100502.42;;;-0.91;82.47
76726;BME280;65651;53.154;17.916;2023-01-20T01:13:39;100503.52;;;-0.92;82.40
76726;BME280;65651;53.154;17.916;2023-01-20T01:16:14;100502.46;;;-0.92;82.45
76726;BME280;65651;53.154;17.916;2023-01-20T01:18:42;100501.89;;;-0.91;82.39
76726;BME280;65651;53.154;17.916;2023-01-20T01:21:12;100500.98;;;-0.90;82.44
76726;BME280;65651;53.154;17.916;2023-01-20T01:23:40;100503.85;;;-0.91;82.17
76726;BME280;65651;53.154;17.916;2023-01-20T01:26:10;100503.38;;;-0.92;82.24
76726;BME280;65651;53.154;17.916;2023-01-20T01:28:39;100505.23;;;-0.95;82.21
76726;BME280;65651;53.154;17.916;2023-01-20T01:31:07;100500.89;;;-0.95;82.08
76726;BME280;65651;53.154;17.916;2023-01-20T01:33:35;100492.30;;;-0.96;82.09
76726;BME280;65651;53.154;17.916;2023-01-20T01:36:03;100499.03;;;-0.97;82.01
76726;BME280;65651;53.154;17.916;2023-01-20T01:38:31;100501.73;;;-0.95;82.07
76726;BME280;65651;53.154;17.916;2023-01-20T01:40:59;100508.13;;;-0.92;82.25
76726;BME280;65651;53.154;17.916;2023-01-20T01:43:28;100507.58;;;-0.92;82.05
76726;BME280;65651;53.154;17.916;2023-01-20T01:45:56;100509.65;;;-0.91;82.07
76726;BME280;65651;53.154;17.916;2023-01-20T01:48:39;100509.36;;;-0.89;82.19
76726;BME280;65651;53.154;17.916;2023-01-20T01:51:18;100511.27;;;-0.88;82.14
76726;BME280;65651;53.154;17.916;2023-01-20T01:53:53;100516.13;;;-0.90;82.16
76726;BME280;65651;53.154;17.916;2023-01-20T01:56:23;100518.94;;;-0.90;82.15
76726;BME280;65651;53.154;17.916;2023-01-20T01:58:55;100522.39;;;-0.89;82.06
76726;BME280;65651;53.154;17.916;2023-01-20T02:01:23;100526.52;;;-0.87;81.90
76726;BME280;65651;53.154;17.916;2023-01-20T02:04:04;100523.13;;;-0.86;81.96
76726;BME280;65651;53.154;17.916;2023-01-20T02:06:33;100523.21;;;-0.84;82.05
76726;BME280;65651;53.154;17.916;2023-01-20T02:09:03;100524.55;;;-0.82;82.05
76726;BME280;65651;53.154;17.916;2023-01-20T02:11:38;100528.65;;;-0.80;82.06
76726;BME280;65651;53.154;17.916;2023-01-20T02:14:07;100535.34;;;-0.79;82.17
76726;BME280;65651;53.154;17.916;2023-01-20T02:22:24;100545.09;;;-0.88;81.87
76726;BME280;65651;53.154;17.916;2023-01-20T02:30:40;100545.52;;;-0.97;81.76
76726;BME280;65651;53.154;17.916;2023-01-20T02:33:15;100546.52;;;-0.95;81.90
76726;BME280;65651;53.154;17.916;2023-01-20T02:36:31;100548.52;;;-0.93;81.78
76726;BME280;65651;53.154;17.916;2023-01-20T02:42:07;100568.52;;;-0.95;81.87
76726;BME280;65651;53.154;17.916;2023-01-20T02:44:53;100569.11;;;-1.00;81.98
76726;BME280;65651;53.154;17.916;2023-01-20T02:50:06;100568.09;;;-1.12;81.95
76726;BME280;65651;53.154;17.916;2023-01-20T02:52:39;100573.58;;;-1.16;81.77
76726;BME280;65651;53.154;17.916;2023-01-20T02:55:11;100581.61;;;-1.22;81.84
76726;BME280;65651;53.154;17.916;2023-01-20T02:57:46;100588.33;;;-1.26;81.82
76726;BME280;65651;53.154;17.916;2023-01-20T03:00:20;100595.64;;;-1.28;81.99
76726;BME280;65651;53.154;17.916;2023-01-20T03:02:51;100599.73;;;-1.29;81.93
76726;BME280;65651;53.154;17.916;2023-01-20T03:05:30;100597.30;;;-1.30;81.99
76726;BME280;65651;53.154;17.916;2023-01-20T03:08:05;100604.56;;;-1.31;81.95
76726;BME280;65651;53.154;17.916;2023-01-20T03:10:36;100605.42;;;-1.30;81.81
76726;BME280;65651;53.154;17.916;2023-01-20T03:13:21;100610.46;;;-1.29;81.86
76726;BME280;65651;53.154;17.916;2023-01-20T03:15:57;100614.63;;;-1.28;82.06
76726;BME280;65651;53.154;17.916;2023-01-20T03:18:30;100619.14;;;-1.30;81.83
76726;BME280;65651;53.154;17.916;2023-01-20T03:21:00;100618.64;;;-1.30;81.96
76726;BME280;65651;53.154;17.916;2023-01-20T03:23:31;100621.70;;;-1.28;82.06
76726;BME280;65651;53.154;17.916;2023-01-20T03:26:03;100624.52;;;-1.28;81.80
76726;BME280;65651;53.154;17.916;2023-01-20T03:28:33;100626.69;;;-1.33;82.09
76726;BME280;65651;53.154;17.916;2023-01-20T03:31:08;100622.14;;;-1.42;81.83
76726;BME280;65651;53.154;17.916;2023-01-20T03:33:42;100620.20;;;-1.45;81.95
76726;BME280;65651;53.154;17.916;2023-01-20T03:36:10;100619.71;;;-1.46;82.07
76726;BME280;65651;53.154;17.916;2023-01-20T03:38:38;100616.42;;;-1.44;82.06
76726;BME280;65651;53.154;17.916;2023-01-20T03:41:47;100614.98;;;-1.39;82.08
76726;BME280;65651;53.154;17.916;2023-01-20T03:55:14;100615.81;;;-1.34;81.76
76726;BME280;65651;53.154;17.916;2023-01-20T03:57:53;100618.63;;;-1.30;82.03
76726;BME280;65651;53.154;17.916;2023-01-20T04:00:25;100619.70;;;-1.23;81.96
76726;BME280;65651;53.154;17.916;2023-01-20T04:02:54;100617.17;;;-1.18;82.05
76726;BME280;65651;53.154;17.916;2023-01-20T04:05:24;100624.73;;;-1.18;82.06
76726;BME280;65651;53.154;17.916;2023-01-20T04:07:55;100629.44;;;-1.17;81.91
76726;BME280;65651;53.154;17.916;2023-01-20T04:10:26;100627.19;;;-1.18;81.95
76726;BME280;65651;53.154;17.916;2023-01-20T04:12:56;100634.96;;;-1.22;82.01
76726;BME280;65651;53.154;17.916;2023-01-20T04:15:24;100636.22;;;-1.26;82.06
76726;BME280;65651;53.154;17.916;2023-01-20T04:17:53;100632.28;;;-1.29;81.83
76726;BME280;65651;53.154;17.916;2023-01-20T04:20:20;100634.31;;;-1.27;81.89
76726;BME280;65651;53.154;17.916;2023-01-20T04:22:54;100631.95;;;-1.25;81.92
76726;BME280;65651;53.154;17.916;2023-01-20T04:25:27;100637.04;;;-1.21;81.96
76726;BME280;65651;53.154;17.916;2023-01-20T04:27:55;100638.89;;;-1.19;81.85
76726;BME280;65651;53.154;17.916;2023-01-20T04:30:25;100642.52;;;-1.25;81.96
76726;BME280;65651;53.154;17.916;2023-01-20T04:32:53;100641.88;;;-1.30;81.82
76726;BME280;65651;53.154;17.916;2023-01-20T04:35:20;100647.13;;;-1.38;81.89
76726;BME280;65651;53.154;17.916;2023-01-20T04:37:48;100649.77;;;-1.42;81.90
76726;BME280;65651;53.154;17.916;2023-01-20T04:40:15;100646.21;;;-1.40;81.86
76726;BME280;65651;53.154;17.916;2023-01-20T04:42:45;100645.48;;;-1.37;81.97
76726;BME280;65651;53.154;17.916;2023-01-20T04:45:16;100649.65;;;-1.35;81.99
76726;BME280;65651;53.154;17.916;2023-01-20T04:47:43;100649.30;;;-1.35;82.03
76726;BME280;65651;53.154;17.916;2023-01-20T04:50:14;100654.61;;;-1.36;81.97
76726;BME280;65651;53.154;17.916;2023-01-20T04:52:42;100655.11;;;-1.39;81.99
76726;BME280;65651;53.154;17.916;2023-01-20T04:55:10;100656.45;;;-1.41;82.08
76726;BME280;65651;53.154;17.916;2023-01-20T04:57:38;100661.28;;;-1.39;81.95
76726;BME280;65651;53.154;17.916;2023-01-20T05:00:06;100664.86;;;-1.40;81.92
76726;BME280;65651;53.154;17.916;2023-01-20T05:02:34;100668.97;;;-1.42;81.94
76726;BME280;65651;53.154;17.916;2023-01-20T05:05:05;100674.04;;;-1.41;82.18
76726;BME280;65651;53.154;17.916;2023-01-20T05:07:32;100682.80;;;-1.40;81.94
76726;BME280;65651;53.154;17.916;2023-01-20T05:09:59;100686.27;;;-1.39;82.16
76726;BME280;65651;53.154;17.916;2023-01-20T05:12:27;100685.33;;;-1.38;82.20
76726;BME280;65651;53.154;17.916;2023-01-20T05:14:54;100688.86;;;-1.38;81.96
76726;BME280;65651;53.154;17.916;2023-01-20T05:17:22;100691.23;;;-1.36;81.90
76726;BME280;65651;53.154;17.916;2023-01-20T05:19:50;100699.14;;;-1.36;82.02
76726;BME280;65651;53.154;17.916;2023-01-20T05:22:17;100703.74;;;-1.37;81.98
76726;BME280;65651;53.154;17.916;2023-01-20T05:24:44;100706.70;;;-1.39;82.04
76726;BME280;65651;53.154;17.916;2023-01-20T05:27:12;100710.98;;;-1.40;82.13
76726;BME280;65651;53.154;17.916;2023-01-20T05:29:39;100716.51;;;-1.38;82.02
76726;BME280;65651;53.154;17.916;2023-01-20T05:32:11;100720.17;;;-1.41;82.02
76726;BME280;65651;53.154;17.916;2023-01-20T05:34:38;100725.83;;;-1.42;82.17
76726;BME280;65651;53.154;17.916;2023-01-20T05:37:06;100729.92;;;-1.43;82.09
76726;BME280;65651;53.154;17.916;2023-01-20T05:39:35;100735.75;;;-1.47;82.09
76726;BME280;65651;53.154;17.916;2023-01-20T05:42:08;100739.46;;;-1.52;82.24
76726;BME280;65651;53.154;17.916;2023-01-20T05:44:36;100743.63;;;-1.54;81.92
76726;BME280;65651;53.154;17.916;2023-01-20T05:47:03;100744.10;;;-1.57;82.06
76726;BME280;65651;53.154;17.916;2023-01-20T05:49:35;100747.77;;;-1.56;82.10
76726;BME280;65651;53.154;17.916;2023-01-20T05:52:03;100752.48;;;-1.56;82.17
76726;BME280;65651;53.154;17.916;2023-01-20T05:54:30;100758.07;;;-1.55;82.25
76726;BME280;65651;53.154;17.916;2023-01-20T05:56:58;100764.48;;;-1.52;82.28
76726;BME280;65651;53.154;17.916;2023-01-20T05:59:25;100768.72;;;-1.52;82.27
76726;BME280;65651;53.154;17.916;2023-01-20T06:01:53;100774.34;;;-1.52;82.29
76726;BME280;65651;53.154;17.916;2023-01-20T06:04:20;100773.23;;;-1.51;82.37
76726;BME280;65651;53.154;17.916;2023-01-20T06:06:49;100775.91;;;-1.52;82.32
76726;BME280;65651;53.154;17.916;2023-01-20T06:09:17;100777.54;;;-1.53;82.22
76726;BME280;65651;53.154;17.916;2023-01-20T06:11:44;100781.71;;;-1.56;82.25
76726;BME280;65651;53.154;17.916;2023-01-20T06:14:11;100789.79;;;-1.56;82.20
76726;BME280;65651;53.154;17.916;2023-01-20T06:16:39;100795.16;;;-1.53;82.40
76726;BME280;65651;53.154;17.916;2023-01-20T06:19:06;100798.80;;;-1.48;82.39
76726;BME280;65651;53.154;17.916;2023-01-20T06:21:33;100803.17;;;-1.43;82.14
76726;BME280;65651;53.154;17.916;2023-01-20T06:24:01;100812.44;;;-1.38;82.34
76726;BME280;65651;53.154;17.916;2023-01-20T06:26:28;100816.68;;;-1.33;82.50
76726;BME280;65651;53.154;17.916;2023-01-20T06:28:59;100824.89;;;-1.32;82.36
76726;BME280;65651;53.154;17.916;2023-01-20T06:31:28;100826.92;;;-1.30;82.13
76726;BME280;65651;53.154;17.916;2023-01-20T06:33:56;100828.63;;;-1.29;82.13
76726;BME280;65651;53.154;17.916;2023-01-20T06:36:26;100833.50;;;-1.27;82.22
76726;BME280;65651;53.154;17.916;2023-01-20T06:38:53;100839.31;;;-1.27;82.16
76726;BME280;65651;53.154;17.916;2023-01-20T06:41:21;100846.06;;;-1.25;82.13
76726;BME280;65651;53.154;17.916;2023-01-20T06:43:49;100850.48;;;-1.21;82.18
76726;BME280;65651;53.154;17.916;2023-01-20T06:46:17;100852.98;;;-1.18;82.26
76726;BME280;65651;53.154;17.916;2023-01-20T06:48:45;100855.51;;;-1.15;82.07
76726;BME280;65651;53.154;17.916;2023-01-20T06:51:18;100858.27;;;-1.14;82.04
76726;BME280;65651;53.154;17.916;2023-01-20T06:53:46;100859.10;;;-1.13;82.15
76726;BME280;65651;53.154;17.916;2023-01-20T06:56:14;100859.00;;;-1.11;82.35
76726;BME280;65651;53.154;17.916;2023-01-20T06:58:42;100861.11;;;-1.11;82.12
76726;BME280;65651;53.154;17.916;2023-01-20T07:01:17;100865.34;;;-1.11;82.23
76726;BME280;65651;53.154;17.916;2023-01-20T07:03:46;100868.84;;;-1.10;82.06
76726;BME280;65651;53.154;17.916;2023-01-20T07:08:44;100876.35;;;-1.08;82.05
76726;BME280;65651;53.154;17.916;2023-01-20T07:11:12;100883.64;;;-1.06;82.03
76726;BME280;65651;53.154;17.916;2023-01-20T07:13:39;100879.35;;;-1.04;82.22
76726;BME280;65651;53.154;17.916;2023-01-20T07:16:07;100886.53;;;-1.03;82.10
76726;BME280;65651;53.154;17.916;2023-01-20T07:18:36;100889.27;;;-1.02;81.88
76726;BME280;65651;53.154;17.916;2023-01-20T07:21:04;100887.77;;;-0.99;82.07
76726;BME280;65651;53.154;17.916;2023-01-20T07:23:32;100891.94;;;-0.98;81.94
76726;BME280;65651;53.154;17.916;2023-01-20T07:26:02;100898.03;;;-0.96;82.03
76726;BME280;65651;53.154;17.916;2023-01-20T07:28:31;100904.61;;;-0.94;82.13
76726;BME280;65651;53.154;17.916;2023-01-20T07:31:06;100906.67;;;-0.93;81.89
76726;BME280;65651;53.154;17.916;2023-01-20T07:33:35;100912.63;;;-0.92;81.90
76726;BME280;65651;53.154;17.916;2023-01-20T07:36:03;100915.55;;;-0.90;81.95
76726;BME280;65651;53.154;17.916;2023-01-20T07:38:31;100926.15;;;-0.87;81.92
76726;BME280;65651;53.154;17.916;2023-01-20T07:41:00;100928.24;;;-0.87;81.94
76726;BME280;65651;53.154;17.916;2023-01-20T07:43:28;100937.42;;;-0.87;81.87
76726;BME280;65651;53.154;17.916;2023-01-20T07:46:01;100935.84;;;-0.87;81.95
76726;BME280;65651;53.154;17.916;2023-01-20T07:48:31;100934.79;;;-0.83;81.73
76726;BME280;65651;53.154;17.916;2023-01-20T07:51:00;100934.23;;;-0.78;81.95
76726;BME280;65651;53.154;17.916;2023-01-20T07:53:30;100940.51;;;-0.72;81.79
76726;BME280;65651;53.154;17.916;2023-01-20T07:56:07;100940.97;;;-0.66;81.81
76726;BME280;65651;53.154;17.916;2023-01-20T07:58:36;100943.83;;;-0.63;81.90
76726;BME280;65651;53.154;17.916;2023-01-20T08:01:12;100947.02;;;-0.60;81.77
76726;BME280;65651;53.154;17.916;2023-01-20T08:03:40;100946.41;;;-0.58;81.67
76726;BME280;65651;53.154;17.916;2023-01-20T08:06:10;100943.86;;;-0.56;81.69
76726;BME280;65651;53.154;17.916;2023-01-20T08:08:38;100942.34;;;-0.58;81.71
76726;BME280;65651;53.154;17.916;2023-01-20T08:11:07;100941.95;;;-0.57;81.65
76726;BME280;65651;53.154;17.916;2023-01-20T08:13:35;100944.30;;;-0.54;81.55
76726;BME280;65651;53.154;17.916;2023-01-20T08:16:04;100945.35;;;-0.50;81.55
76726;BME280;65651;53.154;17.916;2023-01-20T08:18:33;100950.66;;;-0.46;81.34
76726;BME280;65651;53.154;17.916;2023-01-20T08:21:02;100957.23;;;-0.43;81.49
76726;BME280;65651;53.154;17.916;2023-01-20T08:23:35;100962.73;;;-0.40;81.53
76726;BME280;65651;53.154;17.916;2023-01-20T08:26:05;100968.04;;;-0.36;81.28
76726;BME280;65651;53.154;17.916;2023-01-20T08:28:35;100967.81;;;-0.35;81.40
76726;BME280;65651;53.154;17.916;2023-01-20T08:31:08;100968.59;;;-0.33;81.32
76726;BME280;65651;53.154;17.916;2023-01-20T08:33:36;100976.41;;;-0.30;81.32
76726;BME280;65651;53.154;17.916;2023-01-20T08:38:39;100984.98;;;-0.21;81.11
76726;BME280;65651;53.154;17.916;2023-01-20T08:41:25;100988.38;;;-0.17;81.02
76726;BME280;65651;53.154;17.916;2023-01-20T08:43:53;100990.21;;;-0.11;81.01
76726;BME280;65651;53.154;17.916;2023-01-20T08:46:21;100990.86;;;-0.06;80.90
76726;BME280;65651;53.154;17.916;2023-01-20T08:48:49;100997.19;;;-0.02;80.85
76726;BME280;65651;53.154;17.916;2023-01-20T08:51:27;101000.02;;;0.02;80.92
76726;BME280;65651;53.154;17.916;2023-01-20T08:53:55;101000.69;;;0.03;80.76
76726;BME280;65651;53.154;17.916;2023-01-20T08:56:23;101006.02;;;0.06;80.76
76726;BME280;65651;53.154;17.916;2023-01-20T08:58:50;101010.36;;;0.11;80.76
76726;BME280;65651;53.154;17.916;2023-01-20T09:01:22;101013.59;;;0.17;80.70
76726;BME280;65651;53.154;17.916;2023-01-20T09:03:52;101018.17;;;0.18;80.71
76726;BME280;65651;53.154;17.916;2023-01-20T09:06:20;101020.39;;;0.20;80.56
76726;BME280;65651;53.154;17.916;2023-01-20T09:08:48;101025.70;;;0.23;80.53
76726;BME280;65651;53.154;17.916;2023-01-20T09:11:19;101027.34;;;0.22;80.49
76726;BME280;65651;53.154;17.916;2023-01-20T09:13:47;101027.58;;;0.28;80.55
76726;BME280;65651;53.154;17.916;2023-01-20T09:16:16;101032.41;;;0.38;80.32
76726;BME280;65651;53.154;17.916;2023-01-20T09:18:44;101033.97;;;0.47;80.28
76726;BME280;65651;53.154;17.916;2023-01-20T09:21:11;101034.95;;;0.56;80.41
76726;BME280;65651;53.154;17.916;2023-01-20T09:23:40;101040.01;;;0.61;80.29
76726;BME280;65651;53.154;17.916;2023-01-20T09:26:09;101036.62;;;0.62;80.14
76726;BME280;65651;53.154;17.916;2023-01-20T09:28:36;101047.17;;;0.59;79.90
76726;BME280;65651;53.154;17.916;2023-01-20T09:31:08;101047.09;;;0.61;80.07
76726;BME280;65651;53.154;17.916;2023-01-20T09:33:38;101043.57;;;0.64;80.25
76726;BME280;65651;53.154;17.916;2023-01-20T09:36:09;101050.04;;;0.65;80.10
76726;BME280;65651;53.154;17.916;2023-01-20T09:38:37;101052.73;;;0.65;79.86
76726;BME280;65651;53.154;17.916;2023-01-20T09:41:30;101052.35;;;0.65;79.97
76726;BME280;65651;53.154;17.916;2023-01-20T09:44:47;101049.42;;;0.71;79.89
76726;BME280;65651;53.154;17.916;2023-01-20T09:50:12;101051.09;;;0.73;79.78
76726;BME280;65651;53.154;17.916;2023-01-20T09:55:56;101069.59;;;0.70;79.65
76726;BME280;65651;53.154;17.916;2023-01-20T10:06:23;101064.38;;;0.76;79.47
76726;BME280;65651;53.154;17.916;2023-01-20T10:09:03;101061.30;;;0.89;79.30
76726;BME280;65651;53.154;17.916;2023-01-20T10:11:42;101065.73;;;0.96;79.31
76726;BME280;65651;53.154;17.916;2023-01-20T10:14:34;101066.23;;;1.07;79.32
76726;BME280;65651;53.154;17.916;2023-01-20T10:17:19;101063.80;;;1.18;79.35
76726;BME280;65651;53.154;17.916;2023-01-20T10:20:04;101067.85;;;1.25;79.43
76726;BME280;65651;53.154;17.916;2023-01-20T10:25:24;101074.70;;;1.33;78.88
76726;BME280;65651;53.154;17.916;2023-01-20T10:28:08;101073.98;;;1.37;78.75
76726;BME280;65651;53.154;17.916;2023-01-20T10:30:39;101071.79;;;1.42;78.77
76726;BME280;65651;53.154;17.916;2023-01-20T10:33:18;101069.71;;;1.48;78.70
76726;BME280;65651;53.154;17.916;2023-01-20T10:35:53;101066.06;;;1.54;78.72
76726;BME280;65651;53.154;17.916;2023-01-20T10:38:54;101058.52;;;1.52;78.41
76726;BME280;65651;53.154;17.916;2023-01-20T10:41:37;101045.94;;;1.50;78.48
76726;BME280;65651;53.154;17.916;2023-01-20T10:44:12;101044.80;;;1.54;78.32
76726;BME280;65651;53.154;17.916;2023-01-20T10:53:09;101052.50;;;1.52;78.30
76726;BME280;65651;53.154;17.916;2023-01-20T10:56:04;101051.95;;;1.52;78.05
76726;BME280;65651;53.154;17.916;2023-01-20T10:58:38;101061.00;;;1.56;78.22
76726;BME280;65651;53.154;17.916;2023-01-20T11:01:07;101060.23;;;1.60;78.14
76726;BME280;65651;53.154;17.916;2023-01-20T11:03:41;101052.69;;;1.59;78.14
76726;BME280;65651;53.154;17.916;2023-01-20T11:06:27;101044.16;;;1.50;77.76
76726;BME280;65651;53.154;17.916;2023-01-20T11:08:55;101045.91;;;1.43;77.91
76726;BME280;65651;53.154;17.916;2023-01-20T11:11:24;101054.30;;;1.34;77.81
76726;BME280;65651;53.154;17.916;2023-01-20T11:13:52;101059.02;;;1.25;77.62
76726;BME280;65651;53.154;17.916;2023-01-20T11:16:24;101058.66;;;1.25;77.85
76726;BME280;65651;53.154;17.916;2023-01-20T11:21:27;101067.65;;;1.25;77.66
76726;BME280;65651;53.154;17.916;2023-01-20T11:23:56;101064.91;;;1.24;77.80
76726;BME280;65651;53.154;17.916;2023-01-20T11:26:30;101067.04;;;1.20;77.76
76726;BME280;65651;53.154;17.916;2023-01-20T11:29:25;101064.39;;;1.09;77.70
76726;BME280;65651;53.154;17.916;2023-01-20T11:31:54;101071.54;;;1.04;77.67
76726;BME280;65651;53.154;17.916;2023-01-20T11:39:43;101081.70;;;0.98;77.65
76726;BME280;65651;53.154;17.916;2023-01-20T11:42:49;101082.34;;;0.96;77.72
76726;BME280;65651;53.154;17.916;2023-01-20T11:50:50;101092.60;;;1.03;77.71
76726;BME280;65651;53.154;17.916;2023-01-20T11:53:26;101099.55;;;1.06;77.70
76726;BME280;65651;53.154;17.916;2023-01-20T11:55:57;101104.51;;;1.10;77.59
76726;BME280;65651;53.154;17.916;2023-01-20T11:58:55;101107.02;;;1.16;77.74
76726;BME280;65651;53.154;17.916;2023-01-20T12:01:27;101115.78;;;1.21;77.49
76726;BME280;65651;53.154;17.916;2023-01-20T12:06:48;101113.73;;;1.13;77.34
76726;BME280;65651;53.154;17.916;2023-01-20T12:09:20;101120.64;;;1.08;77.50
76726;BME280;65651;53.154;17.916;2023-01-20T12:12:04;101132.11;;;1.05;77.36
76726;BME280;65651;53.154;17.916;2023-01-20T12:14:59;101140.92;;;1.05;77.37
76726;BME280;65651;53.154;17.916;2023-01-20T12:17:48;101138.09;;;1.02;77.37
76726;BME280;65651;53.154;17.916;2023-01-20T12:20:27;101133.55;;;1.04;77.44
76726;BME280;65651;53.154;17.916;2023-01-20T12:25:29;101141.32;;;1.12;77.41
76726;BME280;65651;53.154;17.916;2023-01-20T12:28:04;101142.27;;;1.11;77.57
76726;BME280;65651;53.154;17.916;2023-01-20T12:33:33;101144.98;;;1.10;77.33
76726;BME280;65651;53.154;17.916;2023-01-20T12:36:09;101145.85;;;0.98;77.27
76726;BME280;65651;53.154;17.916;2023-01-20T12:44:58;101160.52;;;0.75;77.16
76726;BME280;65651;53.154;17.916;2023-01-20T12:50:50;101152.03;;;0.69;77.01
76726;BME280;65651;53.154;17.916;2023-01-20T13:01:41;101172.84;;;0.61;77.24
76726;BME280;65651;53.154;17.916;2023-01-20T13:04:25;101174.13;;;0.64;77.14
76726;BME280;65651;53.154;17.916;2023-01-20T13:12:18;101185.55;;;0.73;77.01
76726;BME280;65651;53.154;17.916;2023-01-20T13:17:41;101199.58;;;0.72;77.22
76726;BME280;65651;53.154;17.916;2023-01-20T13:20:21;101208.79;;;0.71;77.21
76726;BME280;65651;53.154;17.916;2023-01-20T13:22:50;101210.55;;;0.71;77.26
76726;BME280;65651;53.154;17.916;2023-01-20T13:25:19;101212.15;;;0.71;77.17
76726;BME280;65651;53.154;17.916;2023-01-20T13:27:49;101213.55;;;0.67;77.20
76726;BME280;65651;53.154;17.916;2023-01-20T13:33:34;101224.15;;;0.64;77.10
76726;BME280;65651;53.154;17.916;2023-01-20T13:38:46;101223.06;;;0.60;76.89
76726;BME280;65651;53.154;17.916;2023-01-20T13:41:49;101224.63;;;0.60;76.89
76726;BME280;65651;53.154;17.916;2023-01-20T13:47:01;101213.65;;;0.61;76.82
76726;BME280;65651;53.154;17.916;2023-01-20T13:49:52;101210.23;;;0.59;76.91
76726;BME280;65651;53.154;17.916;2023-01-20T13:53:02;101209.30;;;0.60;76.87
76726;BME280;65651;53.154;17.916;2023-01-20T13:55:50;101212.54;;;0.58;76.92
76726;BME280;65651;53.154;17.916;2023-01-20T13:58:24;101217.72;;;0.53;76.73
76726;BME280;65651;53.154;17.916;2023-01-20T14:00:55;101218.27;;;0.52;76.89
76726;BME280;65651;53.154;17.916;2023-01-20T14:03:41;101218.56;;;0.53;76.85
76726;BME280;65651;53.154;17.916;2023-01-20T14:08:45;101214.59;;;0.47;76.87
76726;BME280;65651;53.154;17.916;2023-01-20T14:11:24;101218.45;;;0.44;76.71
76726;BME280;65651;53.154;17.916;2023-01-20T14:14:04;101219.19;;;0.43;76.98
76726;BME280;65651;53.154;17.916;2023-01-20T14:21:55;101223.41;;;0.36;76.86
76726;BME280;65651;53.154;17.916;2023-01-20T14:24:41;101227.45;;;0.32;76.80
76726;BME280;65651;53.154;17.916;2023-01-20T14:29:43;101236.98;;;0.28;76.78
76726;BME280;65651;53.154;17.916;2023-01-20T14:32:27;101242.71;;;0.26;76.81
76726;BME280;65651;53.154;17.916;2023-01-20T14:34:55;101243.06;;;0.22;76.83
76726;BME280;65651;53.154;17.916;2023-01-20T14:40:00;101250.51;;;0.21;76.89
76726;BME280;65651;53.154;17.916;2023-01-20T14:42:29;101252.50;;;0.20;77.09
76726;BME280;65651;53.154;17.916;2023-01-20T14:44:57;101264.13;;;0.17;76.92
76726;BME280;65651;53.154;17.916;2023-01-20T14:47:25;101266.94;;;0.13;76.97
76726;BME280;65651;53.154;17.916;2023-01-20T14:49:54;101266.63;;;0.12;77.04
76726;BME280;65651;53.154;17.916;2023-01-20T14:52:26;101267.11;;;0.08;77.00
76726;BME280;65651;53.154;17.916;2023-01-20T14:54:55;101273.16;;;0.07;77.05
76726;BME280;65651;53.154;17.916;2023-01-20T15:00:15;101279.83;;;-0.01;77.01
76726;BME280;65651;53.154;17.916;2023-01-20T15:03:05;101285.26;;;-0.04;77.00
76726;BME280;65651;53.154;17.916;2023-01-20T15:05:35;101288.17;;;-0.11;77.19
76726;BME280;65651;53.154;17.916;2023-01-20T15:21:48;101331.21;;;-0.33;77.12
76726;BME280;65651;53.154;17.916;2023-01-20T15:24:17;101335.70;;;-0.35;77.17
76726;BME280;65651;53.154;17.916;2023-01-20T15:26:46;101345.21;;;-0.35;77.24
76726;BME280;65651;53.154;17.916;2023-01-20T15:29:22;101352.69;;;-0.36;77.15
76726;BME280;65651;53.154;17.916;2023-01-20T15:31:52;101359.98;;;-0.38;77.38